Sugar Bowl, California Weather observations

Data are for observation ending at time listed.
 Day   Time    Ave.   Ave.  Ave.  Vector   Max.   Stn.    Total    Solar   Ave.   Snow 
  of    of     Air    Rel.  Wind   Wind    Wind   Baro.  Precip.   Rad.    Soil   Depth
Year   Day     Temp.  Hum.  Speed  Dir.    Gust   Pres.                    Temp.       
2015   (PST)    F      %     mph   deg.    mph     mb.     in.     W/m2     F      in. 
---------------------------------------------------------------------------------------  
  59    5:20   24.9    92    1.6   238      6.1   773.4    0.00       0    999.0  173.6
  59    5:30   24.7    92    1.5   201      7.7   773.5    0.00       0    999.0  140.1
  59    5:40   24.3    92    1.9   191     11.2   773.5    0.00       0    999.0  156.9
  59    5:50   24.3    93    2.4   196     11.1   773.6    0.00       0    999.0  156.8
  59    6:00   24.3    93    0.9   198      8.3   773.6    0.00       0    999.0  105.6
  59    6:10   24.4    94    0.4   252      2.3   773.6    0.00       0    999.0   22.5
  59    6:20   24.4    94    0.4   280      2.0   773.7    0.00       0    999.0   23.4
  59    6:30   24.4    94    0.2   298      2.5   773.7    0.00       0    999.0  172.7
  59    6:40   24.5    94    0.6   279      3.7   773.8    0.00       0    999.0  157.7
  59    6:50   24.5    94    0.1   192      1.7   773.8    0.01       0    999.0  173.6
  59    7:00   24.6    94    0.5   249      3.1   773.9    0.00       1    999.0  173.6
  59    7:10   24.7    94    2.1   285      8.7   774.0    0.00       1    999.0  173.6
  59    7:20   24.8    93    2.0   296     12.7   774.1    0.00       1    999.0  173.6
  59    7:30   24.8    93    2.0   308      6.4   774.2    0.01       2    999.0  173.6
  59    7:40   24.9    94    0.9   315      7.1   774.4    0.01       3    999.0  173.6
  59    7:50   25.1    94    1.1   291      6.4   774.5    0.01       5    999.0  173.6
  59    8:00   25.4    93    1.1   286      4.6   774.7    0.00       9    999.0  173.6
  59    8:10   25.5    92    1.2   284      5.8   774.8    0.00       8    999.0  173.6
  59    8:20   25.5    92    1.8   274      8.7   774.9    0.02       9    999.0  173.6
  59    8:30   25.6    92    0.8   263      8.4   775.0    0.00      10    999.0  173.6
  59    8:40   25.8    92    0.7   250      3.2   775.1    0.01       8    999.0  173.6
  59    8:50   25.4    91    1.6   180      6.1   775.2    0.01       6    999.0  173.6
  59    9:00   25.1    91    2.8   298      9.6   775.3    0.00       6    999.0  173.6
  59    9:10   25.3    92    1.0   316      6.1   775.4    0.01       6    999.0  173.6
  59    9:20   25.6    93    0.4   284      2.5   775.5    0.01       6    999.0  173.6
  59    9:30   25.6    92    0.5   308      2.4   775.5    0.01       7    999.0  173.6
  59    9:40   25.6    92    1.4   207      6.9   775.6    0.02       8    999.0  173.6
  59    9:50   25.4    92    1.2   191      7.1   775.7    0.01       8    999.0  173.6
  59   10:00   25.3    91    1.7   273      6.4   775.8    0.01       9    999.0  173.6
  59   10:10   25.2    92    1.5   245      6.7   775.9    0.01      12    999.0  173.6
  59   10:20   25.7    92    0.9   205     11.1   776.0    0.02      15    999.0  173.6
  59   10:30   26.1    92    1.1   103      4.1   776.1    0.01      13    999.0  173.6
  59   10:40   25.6    91    2.3   206     13.6   776.2    0.01      12    999.0  173.6
  59   10:50   25.8    91    1.3   218      6.6   776.3    0.01      14    999.0  173.6
  59   11:00   25.7    91    2.9   186     12.8   776.4    0.00      13    999.0   92.8
  59   11:10   25.6    91    1.1   222      4.7   776.4    0.01      12    999.0  173.6
  59   11:20   25.8    92    0.6   159      2.9   776.5    0.01      10    999.0  173.6
  59   11:30   25.9    92    0.7    92      3.1   776.6    0.02      10    999.0  172.6
  59   11:40   25.6    92    0.9   102      3.3   776.7    0.02      13    999.0  173.6
  59   11:50   26.6    94    0.4   142      2.2   776.7    0.01      21    999.0  173.6
  59   12:00   28.5    94    0.6   143      2.6   776.7    0.00      25    999.0  173.6
  59   12:10   29.7    92    0.3   188      2.2   776.6    0.01      27    999.0   61.1
  59   12:20   29.0    88    1.1   308      4.7   776.6    0.01      27    999.0  173.6
  59   12:30   28.6    88    1.1   292      4.5   776.6    0.00      28    999.0  157.4
  59   12:40   28.9    88    1.2   283      5.8   776.6    0.00      28    999.0  173.6
  59   12:50   28.9    87    0.8   302      3.8   776.7    0.00      33    999.0  173.6
  59   13:00   29.2    84    2.2   269      6.6   776.6    0.00      48    999.0   60.0
  59   13:10   29.7    84    1.4   255      3.5   776.6    0.00      54    999.0   58.6
  59   13:20   30.4    83    1.3   280      5.3   776.6    0.00      48    999.0   12.0
  59   13:30   31.3    84    0.5   336      2.8   776.6    0.00      31    999.0   12.8
  59   13:40   30.0    85    0.4    38      2.6   776.6    0.00      21    999.0   10.9
  59   13:50   29.9    85    1.1   195      7.4   776.6    0.00      29    999.0   28.8
  59   14:00   29.8    87    1.1   134      4.2   776.7    0.01      21    999.0  157.3
  59   14:10   28.0    88    1.7    80      6.9   776.8    0.01      11    999.0  157.4
  59   14:20   27.6    88    3.7    92     15.2   776.9    0.02      15    999.0  173.6
  59   14:30   27.2    84    5.6    97     15.4   776.9    0.00      14    999.0  173.6
  59   14:40   26.9    86    4.9    94     18.9   777.0    0.00      15    999.0  157.3
  59   14:50   26.9    88    5.6    95     21.6   777.1    0.00      12    999.0  173.6
  59   15:00   27.0    89    3.6    97      9.3   777.1    0.00      21    999.0  173.6
  59   15:10   27.0    89    7.4    92     24.8   777.3    0.00      17    999.0  173.6
  59   15:20   26.8    88    5.4    88     20.0   777.4    0.00      16    999.0  173.6
  59   15:30   26.8    86    5.4    86     18.6   777.5    0.00      20    999.0  173.6
  59   15:40   27.0    86    4.3    86     14.2   777.6    0.00      32    999.0  173.6
  59   15:50   27.5    85    3.7    86     15.3   777.6    0.00      41    999.0  173.6
  59   16:00   27.5    84    5.7    89     21.2   777.6    0.00      30    999.0  173.6
  59   16:10   27.6    84    3.3    82     18.8   777.7    0.00      30    999.0  173.6
  59   16:20   27.6    87    2.0    53      5.8   777.7    0.00      17    999.0  173.6
  59   16:30   27.4    88    2.1    54      6.2   777.8    0.00      13    999.0  173.6
  59   16:40   27.6    89    1.4    53      5.5   777.8    0.00      13    999.0  173.6
  59   16:50   27.2    85    7.2    92     25.4   777.9    0.00       8    999.0  173.6
  59   17:00   26.9    84    6.9    91     19.8   777.9    0.00       6    999.0  173.6
  59   17:10   26.9    85    5.1    91     14.3   777.9    0.00       4    999.0  173.6
  59   17:20   26.9    84    8.8    89     29.3   778.0    0.00       3    999.0  173.6
  59   17:30   26.9    83    9.9    92     35.0   778.1    0.00       2    999.0  173.6
  59   17:40   26.8    84    8.2    95     21.4   778.2    0.00       1    999.0  173.6
  59   17:50   26.6    86    4.4    85     17.2   778.3    0.00       1    999.0  173.6
  59   18:00   26.3    89    2.9    67     12.9   778.4    0.00       0    999.0  173.6
  59   18:10   26.1    90    1.7    63      8.2   778.5    0.00       0    999.0  173.6
  59   18:20   25.9    89    3.6    82     13.6   778.6    0.00       0    999.0  173.6
  59   18:30   25.9    89    4.1    76     11.8   778.7    0.00       0    999.0  173.6
  59   18:40   25.9    89    5.4    86     20.6   778.8    0.00       0    999.0  173.6
  59   18:50   26.0    88    7.2    94     19.8   778.9    0.00       0    999.0  137.7
  59   19:00   26.1    86    7.9    92     27.9   779.0    0.00       0    999.0  173.6
  59   19:10   26.1    86    7.7    89     21.5   779.1    0.00       0    999.0  173.6
  59   19:20   26.1    86    8.2   100     24.9   779.2    0.00       0    999.0  168.6
  59   19:30   26.1    86    9.8    95     27.2   779.2    0.00       0    999.0  173.6
  59   19:40   26.1    86   10.8    92     32.4   779.2    0.00       0    999.0  173.6
  59   19:50   26.0    85    8.8    90     27.0   779.3    0.00       0    999.0  173.6
  59   20:00   26.2    85   10.3    90     27.7   779.3    0.00       0    999.0  138.9
  59   20:10   26.2    85    9.8    93     28.4   779.4    0.00       0    999.0  157.4
  59   20:20   26.3    86    9.3    86     21.3   779.5    0.00       0    999.0  173.6
  59   20:30   26.4    85   11.6    92     30.3   779.6    0.00       0    999.0  139.7
  59   20:40   26.4    85   11.1    92     25.8   779.7    0.00       0    999.0  157.4
  59   20:50   26.5    84   11.2    91     34.0   779.7    0.00       0    999.0  124.7
  59   21:00   26.5    84    9.8    91     33.2   779.8    0.00       0    999.0  141.3
  59   21:10   26.6    84    9.5    81     26.7   779.9    0.00       0    999.0  157.3
  59   21:20   26.5    84   11.2    86     31.9   780.0    0.00       0    999.0  173.6
  59   21:30   26.6    85   13.3    91     36.5   780.1    0.00       0    999.0  157.3
  59   21:40   26.6    85   14.9    90     37.3   780.3    0.00       0    999.0   75.2
  59   21:50   26.6    85   11.0    89     31.9   780.3    0.00       0    999.0   25.8
  59   22:00   26.5    86   13.1    90     32.3   780.4    0.00       0    999.0   43.4
  59   22:10   26.6    86   12.8    92     46.4   780.5    0.00       0    999.0   11.1
  59   22:20   26.5    88   11.3    89     34.6   780.5    0.00       0    999.0   60.1
  59   22:30   26.4    88   11.5    95     29.7   780.6    0.00       0    999.0  173.6
  59   22:40   26.3    89   12.5    91     31.8   780.5    0.00       0    999.0  141.4
  59   22:50   26.2    89   10.6    88     29.1   780.6    0.00       0    999.0  173.6
  59   23:00   26.2    89   14.1    91     33.8   780.6    0.00       0    999.0  124.9
  59   23:10   26.3    88   13.8    91     34.9   780.6    0.00       0    999.0  107.3
  59   23:20   26.2    89    9.5    88     30.0   780.6    0.00       0    999.0   98.5
  59   23:30   26.1    91    9.6    86     39.8   780.6    0.00       0    999.0   64.7
  59   23:40   26.0    91    9.0    84     26.5   780.7    0.00       0    999.0   13.4
  59   23:50   26.0    92    8.2    83     27.5   780.7    0.00       0    999.0   13.3
  60    0:00   25.9    92    9.8    85     32.3   780.7    0.00       0    999.0   12.5
  60    0:10   25.9    92    9.8    85     28.7   780.8    0.00       0    999.0   12.6
  60    0:20   25.9    93   10.3    88     33.3   780.9    0.00       0    999.0   44.4
  60    0:30   25.9    92   12.5    91     35.7   781.1    0.00       0    999.0   11.8
  60    0:40   26.0    91   10.7    89     30.2   781.1    0.00       0    999.0   60.5
  60    0:50   25.9    92    7.6    85     23.7   781.2    0.00       0    999.0  141.0
  60    1:00   25.9    91   10.9    86     33.3   781.2    0.00       0    999.0  110.8
  60    1:10   25.9    91   12.4    92     32.2   781.3    0.00       0    999.0   91.7
  60    1:20   25.9    90   13.3    90     41.1   781.4    0.00       0    999.0   59.0
  60    1:30   25.8    90   12.3    92     30.6   781.5    0.00       0    999.0  103.2
  60    1:40   25.8    89    9.9    90     42.2   781.6    0.00       0    999.0   76.1
  60    1:50   25.7    89    9.4    86     32.7   781.6    0.00       0    999.0   90.9
  60    2:00   25.7    89    9.2    88     26.6   781.7    0.00       0    999.0   76.9
  60    2:10   25.6    89    9.6    87     26.1   781.7    0.00       0    999.0  106.8
  60    2:20   25.5    90    5.8    76     19.7   781.7    0.00       0    999.0  125.8
  60    2:30   25.3    92    6.0    80     18.6   781.6    0.00       0    999.0  108.6
  60    2:40   25.3    92    7.2    82     23.2   781.6    0.00       0    999.0   76.2
  60    2:50   25.3    92    8.8    89     22.9   781.6    0.00       0    999.0   91.2
  60    3:00   25.3    92    7.8    76     25.1   781.6    0.00       0    999.0   26.8
  60    3:10   25.3    92    8.7    85     27.0   781.6    0.00       0    999.0   10.5
  60    3:20   25.3    92   10.2    89     32.2   781.6    0.00       0    999.0   27.2
  60    3:30   25.2    92    9.1    82     30.9   781.6    0.00       0    999.0   10.9
  60    3:40   25.1    92    9.8    86     24.8   781.7    0.00       0    999.0   10.9
  60    3:50   25.0    92   10.1    88     28.6   781.7    0.00       0    999.0   10.5
  60    4:00   25.0    93    9.2    94     23.2   781.8    0.00       0    999.0   11.3
  60    4:10   25.0    92   10.1    92     29.4   782.0    0.00       0    999.0   27.5
  60    4:20   25.0    92    9.2    89     24.5   782.0    0.00       0    999.0   11.2
  60    4:30   24.9    92    8.8    86     24.3   781.9    0.00       0    999.0   59.5
  60    4:40   24.9    92    8.5    88     25.9   781.9    0.00       0    999.0   43.6
  60    4:50   24.9    92   11.5    90     27.0   782.0    0.00       0    999.0   43.7
  60    5:00   24.9    91    9.2    86     35.3   782.0    0.00       0    999.0   89.4
  60    5:10   24.8    91    9.7    86     36.9   782.1    0.00       0    999.0   59.1

Return to Sugar Bowl graphs page.


Western Regional Climate Center,wrcc@dri.edu